sensor_id;sensor_type;location;lat;lon;timestamp;P1;durP1;ratioP1;P2;durP2;ratioP2
34236;SDS011;20501;45.956;13.632;2023-08-20T00:01:43;21.43;;;15.20;;
34236;SDS011;20501;45.956;13.632;2023-08-20T00:04:09;18.98;;;13.93;;
34236;SDS011;20501;45.956;13.632;2023-08-20T00:06:35;16.97;;;13.57;;
34236;SDS011;20501;45.956;13.632;2023-08-20T00:09:00;23.07;;;14.53;;
34236;SDS011;20501;45.956;13.632;2023-08-20T00:11:26;18.30;;;13.83;;
34236;SDS011;20501;45.956;13.632;2023-08-20T00:13:52;18.90;;;13.87;;
34236;SDS011;20501;45.956;13.632;2023-08-20T00:16:17;21.63;;;14.00;;
34236;SDS011;20501;45.956;13.632;2023-08-20T00:18:43;16.60;;;13.57;;
34236;SDS011;20501;45.956;13.632;2023-08-20T00:21:09;16.55;;;13.40;;
34236;SDS011;20501;45.956;13.632;2023-08-20T00:23:35;20.17;;;14.18;;
34236;SDS011;20501;45.956;13.632;2023-08-20T00:26:01;21.75;;;14.60;;
34236;SDS011;20501;45.956;13.632;2023-08-20T00:28:27;17.92;;;13.73;;
34236;SDS011;20501;45.956;13.632;2023-08-20T00:30:53;18.92;;;14.32;;
34236;SDS011;20501;45.956;13.632;2023-08-20T00:33:18;19.40;;;13.88;;
34236;SDS011;20501;45.956;13.632;2023-08-20T00:35:44;22.50;;;14.57;;
34236;SDS011;20501;45.956;13.632;2023-08-20T00:38:09;20.87;;;15.20;;
34236;SDS011;20501;45.956;13.632;2023-08-20T00:40:34;19.43;;;14.57;;
34236;SDS011;20501;45.956;13.632;2023-08-20T00:43:00;19.77;;;15.27;;
34236;SDS011;20501;45.956;13.632;2023-08-20T00:45:26;19.65;;;14.90;;
34236;SDS011;20501;45.956;13.632;2023-08-20T00:47:52;22.13;;;16.37;;
34236;SDS011;20501;45.956;13.632;2023-08-20T00:50:18;16.73;;;14.47;;
34236;SDS011;20501;45.956;13.632;2023-08-20T00:52:44;21.50;;;14.40;;
34236;SDS011;20501;45.956;13.632;2023-08-20T00:55:11;21.48;;;15.32;;
34236;SDS011;20501;45.956;13.632;2023-08-20T00:57:38;20.80;;;14.70;;
34236;SDS011;20501;45.956;13.632;2023-08-20T01:00:05;16.92;;;14.35;;
34236;SDS011;20501;45.956;13.632;2023-08-20T01:02:36;20.25;;;14.30;;
34236;SDS011;20501;45.956;13.632;2023-08-20T01:10:13;22.67;;;16.23;;
34236;SDS011;20501;45.956;13.632;2023-08-20T01:12:48;20.45;;;15.80;;
34236;SDS011;20501;45.956;13.632;2023-08-20T01:15:16;21.83;;;15.13;;
34236;SDS011;20501;45.956;13.632;2023-08-20T01:17:42;22.83;;;15.47;;
34236;SDS011;20501;45.956;13.632;2023-08-20T01:20:09;17.93;;;14.33;;
34236;SDS011;20501;45.956;13.632;2023-08-20T01:30:16;19.63;;;14.95;;
34236;SDS011;20501;45.956;13.632;2023-08-20T01:32:45;19.45;;;14.10;;
34236;SDS011;20501;45.956;13.632;2023-08-20T01:35:13;21.17;;;15.27;;
34236;SDS011;20501;45.956;13.632;2023-08-20T01:37:41;24.50;;;15.43;;
34236;SDS011;20501;45.956;13.632;2023-08-20T01:40:07;21.87;;;16.60;;
34236;SDS011;20501;45.956;13.632;2023-08-20T01:42:35;20.88;;;15.90;;
34236;SDS011;20501;45.956;13.632;2023-08-20T01:47:27;23.73;;;14.88;;
34236;SDS011;20501;45.956;13.632;2023-08-20T01:49:53;19.47;;;15.23;;
34236;SDS011;20501;45.956;13.632;2023-08-20T01:52:18;21.43;;;15.47;;
34236;SDS011;20501;45.956;13.632;2023-08-20T01:54:43;19.98;;;15.80;;
34236;SDS011;20501;45.956;13.632;2023-08-20T01:57:09;20.63;;;15.50;;
34236;SDS011;20501;45.956;13.632;2023-08-20T01:59:35;23.87;;;14.03;;
34236;SDS011;20501;45.956;13.632;2023-08-20T02:02:01;26.77;;;15.95;;
34236;SDS011;20501;45.956;13.632;2023-08-20T02:04:27;19.00;;;14.07;;
34236;SDS011;20501;45.956;13.632;2023-08-20T02:06:52;24.17;;;15.68;;
34236;SDS011;20501;45.956;13.632;2023-08-20T02:09:18;22.53;;;14.53;;
34236;SDS011;20501;45.956;13.632;2023-08-20T02:11:44;23.02;;;16.08;;
34236;SDS011;20501;45.956;13.632;2023-08-20T02:14:10;26.02;;;15.73;;
34236;SDS011;20501;45.956;13.632;2023-08-20T02:16:35;23.65;;;14.55;;
34236;SDS011;20501;45.956;13.632;2023-08-20T02:19:01;20.97;;;14.83;;
34236;SDS011;20501;45.956;13.632;2023-08-20T02:21:28;19.40;;;14.32;;
34236;SDS011;20501;45.956;13.632;2023-08-20T02:23:54;22.60;;;14.75;;
34236;SDS011;20501;45.956;13.632;2023-08-20T02:26:19;19.03;;;14.83;;
34236;SDS011;20501;45.956;13.632;2023-08-20T02:28:45;23.03;;;15.90;;
34236;SDS011;20501;45.956;13.632;2023-08-20T02:31:10;25.67;;;15.70;;
34236;SDS011;20501;45.956;13.632;2023-08-20T02:33:35;22.88;;;15.07;;
34236;SDS011;20501;45.956;13.632;2023-08-20T02:36:04;23.83;;;15.53;;
34236;SDS011;20501;45.956;13.632;2023-08-20T02:38:30;20.83;;;14.57;;
34236;SDS011;20501;45.956;13.632;2023-08-20T02:40:56;19.30;;;14.87;;
34236;SDS011;20501;45.956;13.632;2023-08-20T02:43:22;22.92;;;15.05;;
34236;SDS011;20501;45.956;13.632;2023-08-20T02:45:47;21.48;;;15.70;;
34236;SDS011;20501;45.956;13.632;2023-08-20T02:48:13;20.58;;;16.08;;
34236;SDS011;20501;45.956;13.632;2023-08-20T02:50:39;27.58;;;16.05;;
34236;SDS011;20501;45.956;13.632;2023-08-20T02:53:05;21.70;;;15.43;;
34236;SDS011;20501;45.956;13.632;2023-08-20T02:55:31;20.38;;;15.20;;
34236;SDS011;20501;45.956;13.632;2023-08-20T02:57:58;16.70;;;14.30;;
34236;SDS011;20501;45.956;13.632;2023-08-20T03:00:24;18.33;;;14.00;;
34236;SDS011;20501;45.956;13.632;2023-08-20T03:02:49;19.38;;;13.52;;
34236;SDS011;20501;45.956;13.632;2023-08-20T03:05:15;19.52;;;14.68;;
34236;SDS011;20501;45.956;13.632;2023-08-20T03:07:40;16.80;;;14.17;;
34236;SDS011;20501;45.956;13.632;2023-08-20T03:10:06;16.45;;;14.60;;
34236;SDS011;20501;45.956;13.632;2023-08-20T03:12:32;21.00;;;13.93;;
34236;SDS011;20501;45.956;13.632;2023-08-20T03:14:59;20.17;;;15.10;;
34236;SDS011;20501;45.956;13.632;2023-08-20T03:17:25;21.05;;;15.48;;
34236;SDS011;20501;45.956;13.632;2023-08-20T03:19:54;19.67;;;14.47;;
34236;SDS011;20501;45.956;13.632;2023-08-20T03:22:24;17.45;;;14.32;;
34236;SDS011;20501;45.956;13.632;2023-08-20T03:27:16;19.38;;;14.02;;
34236;SDS011;20501;45.956;13.632;2023-08-20T03:29:42;22.77;;;14.97;;
34236;SDS011;20501;45.956;13.632;2023-08-20T03:32:08;23.57;;;15.30;;
34236;SDS011;20501;45.956;13.632;2023-08-20T03:34:33;22.53;;;14.50;;
34236;SDS011;20501;45.956;13.632;2023-08-20T03:36:59;16.83;;;13.67;;
34236;SDS011;20501;45.956;13.632;2023-08-20T03:39:24;17.40;;;13.83;;
34236;SDS011;20501;45.956;13.632;2023-08-20T03:41:50;21.20;;;14.50;;
34236;SDS011;20501;45.956;13.632;2023-08-20T03:44:15;19.02;;;13.68;;
34236;SDS011;20501;45.956;13.632;2023-08-20T03:46:41;20.80;;;15.03;;
34236;SDS011;20501;45.956;13.632;2023-08-20T03:49:06;17.07;;;13.87;;
34236;SDS011;20501;45.956;13.632;2023-08-20T03:51:32;22.17;;;13.93;;
34236;SDS011;20501;45.956;13.632;2023-08-20T03:53:57;23.30;;;14.97;;
34236;SDS011;20501;45.956;13.632;2023-08-20T03:56:23;21.23;;;14.30;;
34236;SDS011;20501;45.956;13.632;2023-08-20T03:58:48;19.23;;;14.55;;
34236;SDS011;20501;45.956;13.632;2023-08-20T04:01:14;21.87;;;14.53;;
34236;SDS011;20501;45.956;13.632;2023-08-20T04:03:39;20.35;;;13.70;;
34236;SDS011;20501;45.956;13.632;2023-08-20T04:06:04;23.50;;;14.90;;
34236;SDS011;20501;45.956;13.632;2023-08-20T04:08:30;19.05;;;15.00;;
34236;SDS011;20501;45.956;13.632;2023-08-20T04:10:55;23.70;;;14.95;;
34236;SDS011;20501;45.956;13.632;2023-08-20T04:13:21;19.23;;;14.30;;
34236;SDS011;20501;45.956;13.632;2023-08-20T04:15:46;18.70;;;14.70;;
34236;SDS011;20501;45.956;13.632;2023-08-20T04:18:12;18.70;;;14.43;;
34236;SDS011;20501;45.956;13.632;2023-08-20T04:20:37;17.35;;;14.65;;
34236;SDS011;20501;45.956;13.632;2023-08-20T04:23:03;21.27;;;14.87;;
34236;SDS011;20501;45.956;13.632;2023-08-20T04:25:28;17.40;;;13.75;;
34236;SDS011;20501;45.956;13.632;2023-08-20T04:27:54;19.07;;;13.57;;
34236;SDS011;20501;45.956;13.632;2023-08-20T04:30:19;20.73;;;14.83;;
34236;SDS011;20501;45.956;13.632;2023-08-20T04:32:45;17.90;;;14.30;;
34236;SDS011;20501;45.956;13.632;2023-08-20T04:35:10;20.15;;;15.23;;
34236;SDS011;20501;45.956;13.632;2023-08-20T04:37:35;20.40;;;14.77;;
34236;SDS011;20501;45.956;13.632;2023-08-20T04:40:01;21.40;;;14.13;;
34236;SDS011;20501;45.956;13.632;2023-08-20T04:42:30;17.13;;;13.57;;
34236;SDS011;20501;45.956;13.632;2023-08-20T04:44:56;22.55;;;14.43;;
34236;SDS011;20501;45.956;13.632;2023-08-20T04:47:21;21.00;;;13.70;;
34236;SDS011;20501;45.956;13.632;2023-08-20T04:49:46;17.63;;;14.83;;
34236;SDS011;20501;45.956;13.632;2023-08-20T04:52:12;24.83;;;14.67;;
34236;SDS011;20501;45.956;13.632;2023-08-20T04:54:37;23.30;;;14.70;;
34236;SDS011;20501;45.956;13.632;2023-08-20T04:57:03;18.87;;;13.77;;
34236;SDS011;20501;45.956;13.632;2023-08-20T04:59:28;18.37;;;14.87;;
34236;SDS011;20501;45.956;13.632;2023-08-20T05:01:54;20.17;;;13.57;;
34236;SDS011;20501;45.956;13.632;2023-08-20T05:04:19;25.63;;;15.73;;
34236;SDS011;20501;45.956;13.632;2023-08-20T05:06:45;22.87;;;14.50;;
34236;SDS011;20501;45.956;13.632;2023-08-20T05:09:13;19.27;;;13.70;;
34236;SDS011;20501;45.956;13.632;2023-08-20T05:11:40;20.63;;;14.48;;
34236;SDS011;20501;45.956;13.632;2023-08-20T05:14:06;31.20;;;15.80;;
34236;SDS011;20501;45.956;13.632;2023-08-20T05:16:31;19.95;;;12.88;;
34236;SDS011;20501;45.956;13.632;2023-08-20T05:18:56;19.03;;;13.90;;
34236;SDS011;20501;45.956;13.632;2023-08-20T05:21:22;18.73;;;13.87;;
34236;SDS011;20501;45.956;13.632;2023-08-20T05:23:47;22.25;;;14.65;;
34236;SDS011;20501;45.956;13.632;2023-08-20T05:26:13;19.58;;;14.27;;
34236;SDS011;20501;45.956;13.632;2023-08-20T05:28:38;20.63;;;13.73;;
34236;SDS011;20501;45.956;13.632;2023-08-20T05:31:03;16.87;;;13.43;;
34236;SDS011;20501;45.956;13.632;2023-08-20T05:33:29;21.87;;;15.00;;
34236;SDS011;20501;45.956;13.632;2023-08-20T05:35:54;22.00;;;14.25;;
34236;SDS011;20501;45.956;13.632;2023-08-20T05:38:20;18.13;;;14.10;;
34236;SDS011;20501;45.956;13.632;2023-08-20T05:40:45;22.60;;;14.80;;
34236;SDS011;20501;45.956;13.632;2023-08-20T05:43:11;26.80;;;15.20;;
34236;SDS011;20501;45.956;13.632;2023-08-20T05:45:36;22.33;;;13.93;;
34236;SDS011;20501;45.956;13.632;2023-08-20T05:48:02;20.53;;;14.97;;
34236;SDS011;20501;45.956;13.632;2023-08-20T05:50:27;19.70;;;13.23;;
34236;SDS011;20501;45.956;13.632;2023-08-20T05:52:53;20.90;;;13.40;;
34236;SDS011;20501;45.956;13.632;2023-08-20T05:55:18;19.60;;;13.87;;
34236;SDS011;20501;45.956;13.632;2023-08-20T05:57:44;15.80;;;13.60;;
34236;SDS011;20501;45.956;13.632;2023-08-20T06:00:10;17.83;;;13.97;;
34236;SDS011;20501;45.956;13.632;2023-08-20T06:02:36;16.23;;;13.15;;
34236;SDS011;20501;45.956;13.632;2023-08-20T06:05:02;18.30;;;14.88;;
34236;SDS011;20501;45.956;13.632;2023-08-20T06:07:30;18.58;;;14.15;;
34236;SDS011;20501;45.956;13.632;2023-08-20T06:09:57;22.10;;;13.52;;
34236;SDS011;20501;45.956;13.632;2023-08-20T06:12:23;19.63;;;14.00;;
34236;SDS011;20501;45.956;13.632;2023-08-20T06:14:49;19.87;;;14.10;;
34236;SDS011;20501;45.956;13.632;2023-08-20T06:17:14;15.17;;;12.50;;
34236;SDS011;20501;45.956;13.632;2023-08-20T06:19:40;16.50;;;13.33;;
34236;SDS011;20501;45.956;13.632;2023-08-20T06:22:05;21.33;;;14.47;;
34236;SDS011;20501;45.956;13.632;2023-08-20T06:24:31;21.90;;;14.70;;
34236;SDS011;20501;45.956;13.632;2023-08-20T06:26:56;18.50;;;13.50;;
34236;SDS011;20501;45.956;13.632;2023-08-20T06:29:22;16.50;;;13.53;;
34236;SDS011;20501;45.956;13.632;2023-08-20T06:31:47;20.00;;;14.57;;
34236;SDS011;20501;45.956;13.632;2023-08-20T06:34:13;18.35;;;13.82;;
34236;SDS011;20501;45.956;13.632;2023-08-20T06:36:39;17.03;;;13.90;;
34236;SDS011;20501;45.956;13.632;2023-08-20T06:39:04;21.95;;;14.25;;
34236;SDS011;20501;45.956;13.632;2023-08-20T06:41:30;21.00;;;13.20;;
34236;SDS011;20501;45.956;13.632;2023-08-20T06:43:55;20.07;;;13.43;;
34236;SDS011;20501;45.956;13.632;2023-08-20T06:46:21;16.80;;;13.43;;
34236;SDS011;20501;45.956;13.632;2023-08-20T06:48:46;16.10;;;13.20;;
34236;SDS011;20501;45.956;13.632;2023-08-20T06:51:15;17.70;;;13.33;;
34236;SDS011;20501;45.956;13.632;2023-08-20T06:53:43;27.38;;;16.10;;
34236;SDS011;20501;45.956;13.632;2023-08-20T06:56:09;23.03;;;13.73;;
34236;SDS011;20501;45.956;13.632;2023-08-20T06:58:36;18.95;;;13.70;;
34236;SDS011;20501;45.956;13.632;2023-08-20T07:03:37;18.23;;;14.05;;
34236;SDS011;20501;45.956;13.632;2023-08-20T07:06:04;18.48;;;14.38;;
34236;SDS011;20501;45.956;13.632;2023-08-20T07:08:30;18.77;;;13.40;;
34236;SDS011;20501;45.956;13.632;2023-08-20T07:10:55;17.03;;;13.17;;
34236;SDS011;20501;45.956;13.632;2023-08-20T07:13:21;16.53;;;13.43;;
34236;SDS011;20501;45.956;13.632;2023-08-20T07:15:47;18.38;;;13.02;;
34236;SDS011;20501;45.956;13.632;2023-08-20T07:18:13;19.67;;;14.53;;
34236;SDS011;20501;45.956;13.632;2023-08-20T07:23:05;16.70;;;13.02;;
34236;SDS011;20501;45.956;13.632;2023-08-20T07:25:31;16.93;;;13.30;;
34236;SDS011;20501;45.956;13.632;2023-08-20T07:27:56;18.37;;;13.70;;
34236;SDS011;20501;45.956;13.632;2023-08-20T07:30:24;16.63;;;13.07;;
34236;SDS011;20501;45.956;13.632;2023-08-20T07:32:50;18.17;;;12.90;;
34236;SDS011;20501;45.956;13.632;2023-08-20T07:35:16;15.53;;;12.70;;
34236;SDS011;20501;45.956;13.632;2023-08-20T07:37:41;16.93;;;12.10;;
34236;SDS011;20501;45.956;13.632;2023-08-20T07:40:07;15.77;;;12.70;;
34236;SDS011;20501;45.956;13.632;2023-08-20T07:42:32;15.50;;;13.13;;
34236;SDS011;20501;45.956;13.632;2023-08-20T07:44:58;15.67;;;12.50;;
34236;SDS011;20501;45.956;13.632;2023-08-20T07:47:23;18.07;;;12.90;;
34236;SDS011;20501;45.956;13.632;2023-08-20T07:49:49;16.03;;;13.07;;
34236;SDS011;20501;45.956;13.632;2023-08-20T07:52:14;14.87;;;12.90;;
34236;SDS011;20501;45.956;13.632;2023-08-20T07:54:40;15.30;;;12.00;;
34236;SDS011;20501;45.956;13.632;2023-08-20T07:57:05;17.37;;;13.60;;
34236;SDS011;20501;45.956;13.632;2023-08-20T07:59:30;17.47;;;13.07;;
34236;SDS011;20501;45.956;13.632;2023-08-20T08:01:56;13.83;;;12.23;;
34236;SDS011;20501;45.956;13.632;2023-08-20T08:04:21;16.00;;;13.33;;
34236;SDS011;20501;45.956;13.632;2023-08-20T08:06:47;16.17;;;13.00;;
34236;SDS011;20501;45.956;13.632;2023-08-20T08:09:18;13.17;;;11.77;;
34236;SDS011;20501;45.956;13.632;2023-08-20T08:11:45;14.38;;;12.23;;
34236;SDS011;20501;45.956;13.632;2023-08-20T08:14:10;14.77;;;12.57;;
34236;SDS011;20501;45.956;13.632;2023-08-20T08:16:36;15.38;;;13.18;;
34236;SDS011;20501;45.956;13.632;2023-08-20T08:19:02;18.73;;;15.10;;
34236;SDS011;20501;45.956;13.632;2023-08-20T08:21:27;14.97;;;12.90;;
34236;SDS011;20501;45.956;13.632;2023-08-20T08:23:53;15.40;;;12.17;;
34236;SDS011;20501;45.956;13.632;2023-08-20T08:26:18;16.87;;;12.97;;
34236;SDS011;20501;45.956;13.632;2023-08-20T08:28:44;16.97;;;14.13;;
34236;SDS011;20501;45.956;13.632;2023-08-20T08:31:09;13.30;;;11.67;;
34236;SDS011;20501;45.956;13.632;2023-08-20T08:33:35;15.67;;;13.73;;
34236;SDS011;20501;45.956;13.632;2023-08-20T08:36:00;14.50;;;12.20;;
34236;SDS011;20501;45.956;13.632;2023-08-20T08:38:25;14.47;;;12.97;;
34236;SDS011;20501;45.956;13.632;2023-08-20T08:40:51;17.47;;;12.87;;
34236;SDS011;20501;45.956;13.632;2023-08-20T08:43:17;15.90;;;13.13;;
34236;SDS011;20501;45.956;13.632;2023-08-20T08:45:46;23.73;;;14.13;;
34236;SDS011;20501;45.956;13.632;2023-08-20T08:48:15;18.10;;;13.00;;
34236;SDS011;20501;45.956;13.632;2023-08-20T08:50:42;17.45;;;13.15;;
34236;SDS011;20501;45.956;13.632;2023-08-20T08:53:10;19.05;;;13.88;;
34236;SDS011;20501;45.956;13.632;2023-08-20T08:55:37;16.40;;;13.30;;
34236;SDS011;20501;45.956;13.632;2023-08-20T08:58:03;16.90;;;13.83;;
34236;SDS011;20501;45.956;13.632;2023-08-20T09:00:29;15.47;;;13.30;;
34236;SDS011;20501;45.956;13.632;2023-08-20T09:02:56;16.40;;;13.50;;
34236;SDS011;20501;45.956;13.632;2023-08-20T09:05:21;17.67;;;13.70;;
34236;SDS011;20501;45.956;13.632;2023-08-20T09:07:47;15.73;;;13.60;;
34236;SDS011;20501;45.956;13.632;2023-08-20T09:10:32;16.42;;;14.27;;
34236;SDS011;20501;45.956;13.632;2023-08-20T09:12:58;16.97;;;13.13;;
34236;SDS011;20501;45.956;13.632;2023-08-20T09:15:29;17.07;;;12.83;;
34236;SDS011;20501;45.956;13.632;2023-08-20T09:17:57;15.45;;;12.85;;
34236;SDS011;20501;45.956;13.632;2023-08-20T09:20:33;17.00;;;13.80;;
34236;SDS011;20501;45.956;13.632;2023-08-20T09:22:59;15.73;;;13.00;;
34236;SDS011;20501;45.956;13.632;2023-08-20T09:25:24;16.67;;;13.70;;
34236;SDS011;20501;45.956;13.632;2023-08-20T09:27:50;14.20;;;12.70;;
34236;SDS011;20501;45.956;13.632;2023-08-20T09:30:17;15.00;;;12.10;;
34236;SDS011;20501;45.956;13.632;2023-08-20T09:32:45;14.63;;;12.30;;
34236;SDS011;20501;45.956;13.632;2023-08-20T09:35:17;14.07;;;11.50;;
34236;SDS011;20501;45.956;13.632;2023-08-20T09:37:43;12.57;;;11.25;;
34236;SDS011;20501;45.956;13.632;2023-08-20T09:40:09;14.17;;;12.30;;
34236;SDS011;20501;45.956;13.632;2023-08-20T09:42:35;13.95;;;12.07;;
34236;SDS011;20501;45.956;13.632;2023-08-20T09:45:02;16.00;;;12.63;;
34236;SDS011;20501;45.956;13.632;2023-08-20T09:47:29;20.25;;;13.15;;
34236;SDS011;20501;45.956;13.632;2023-08-20T09:50:00;12.50;;;11.15;;
34236;SDS011;20501;45.956;13.632;2023-08-20T09:55:16;16.13;;;13.13;;
34236;SDS011;20501;45.956;13.632;2023-08-20T09:57:45;14.75;;;13.23;;
34236;SDS011;20501;45.956;13.632;2023-08-20T10:00:13;14.90;;;12.80;;
34236;SDS011;20501;45.956;13.632;2023-08-20T10:02:39;14.27;;;12.80;;
34236;SDS011;20501;45.956;13.632;2023-08-20T10:05:05;17.30;;;12.35;;
34236;SDS011;20501;45.956;13.632;2023-08-20T10:07:31;14.25;;;12.75;;
34236;SDS011;20501;45.956;13.632;2023-08-20T10:09:57;17.33;;;12.87;;
34236;SDS011;20501;45.956;13.632;2023-08-20T10:12:26;13.23;;;11.82;;
34236;SDS011;20501;45.956;13.632;2023-08-20T10:14:52;18.67;;;12.15;;
34236;SDS011;20501;45.956;13.632;2023-08-20T10:17:18;16.23;;;12.50;;
34236;SDS011;20501;45.956;13.632;2023-08-20T10:19:43;14.03;;;12.53;;
34236;SDS011;20501;45.956;13.632;2023-08-20T10:22:09;13.47;;;12.07;;
34236;SDS011;20501;45.956;13.632;2023-08-20T10:25:09;14.63;;;12.45;;
34236;SDS011;20501;45.956;13.632;2023-08-20T10:27:31;14.48;;;12.98;;
34236;SDS011;20501;45.956;13.632;2023-08-20T10:30:00;14.82;;;11.90;;
34236;SDS011;20501;45.956;13.632;2023-08-20T10:32:45;13.35;;;11.13;;
34236;SDS011;20501;45.956;13.632;2023-08-20T10:35:46;13.88;;;12.05;;
34236;SDS011;20501;45.956;13.632;2023-08-20T10:38:13;17.35;;;12.23;;
34236;SDS011;20501;45.956;13.632;2023-08-20T10:40:48;14.50;;;11.68;;
34236;SDS011;20501;45.956;13.632;2023-08-20T10:43:50;13.85;;;11.57;;
34236;SDS011;20501;45.956;13.632;2023-08-20T10:48:50;12.10;;;10.88;;
34236;SDS011;20501;45.956;13.632;2023-08-20T10:56:42;12.85;;;11.50;;
34236;SDS011;20501;45.956;13.632;2023-08-20T10:59:09;12.27;;;10.98;;
34236;SDS011;20501;45.956;13.632;2023-08-20T11:01:39;13.77;;;12.20;;
34236;SDS011;20501;45.956;13.632;2023-08-20T11:04:07;11.98;;;10.32;;
34236;SDS011;20501;45.956;13.632;2023-08-20T11:06:34;14.63;;;11.40;;
34236;SDS011;20501;45.956;13.632;2023-08-20T11:09:00;13.27;;;10.87;;
34236;SDS011;20501;45.956;13.632;2023-08-20T11:11:26;13.57;;;10.77;;
34236;SDS011;20501;45.956;13.632;2023-08-20T11:13:51;12.50;;;10.23;;
34236;SDS011;20501;45.956;13.632;2023-08-20T11:16:17;13.27;;;11.50;;
34236;SDS011;20501;45.956;13.632;2023-08-20T11:18:43;13.17;;;11.77;;
34236;SDS011;20501;45.956;13.632;2023-08-20T11:21:08;10.47;;;9.07;;
34236;SDS011;20501;45.956;13.632;2023-08-20T11:23:34;13.10;;;11.02;;
34236;SDS011;20501;45.956;13.632;2023-08-20T11:26:00;10.95;;;9.52;;
34236;SDS011;20501;45.956;13.632;2023-08-20T11:28:27;10.90;;;9.75;;
34236;SDS011;20501;45.956;13.632;2023-08-20T11:30:53;10.82;;;9.73;;
34236;SDS011;20501;45.956;13.632;2023-08-20T11:33:20;10.15;;;9.15;;
34236;SDS011;20501;45.956;13.632;2023-08-20T11:35:47;12.20;;;9.88;;
34236;SDS011;20501;45.956;13.632;2023-08-20T11:38:12;10.97;;;8.90;;
34236;SDS011;20501;45.956;13.632;2023-08-20T11:40:38;10.10;;;8.43;;
34236;SDS011;20501;45.956;13.632;2023-08-20T11:43:04;12.83;;;8.73;;
34236;SDS011;20501;45.956;13.632;2023-08-20T11:45:30;8.93;;;7.85;;
34236;SDS011;20501;45.956;13.632;2023-08-20T11:47:57;10.77;;;8.02;;
34236;SDS011;20501;45.956;13.632;2023-08-20T11:50:23;13.52;;;8.90;;
34236;SDS011;20501;45.956;13.632;2023-08-20T11:52:49;8.90;;;8.00;;
34236;SDS011;20501;45.956;13.632;2023-08-20T11:55:21;13.27;;;9.00;;
34236;SDS011;20501;45.956;13.632;2023-08-20T11:57:51;8.98;;;8.05;;
34236;SDS011;20501;45.956;13.632;2023-08-20T12:00:27;9.45;;;8.20;;
34236;SDS011;20501;45.956;13.632;2023-08-20T12:02:53;9.05;;;7.53;;
34236;SDS011;20501;45.956;13.632;2023-08-20T12:05:28;11.07;;;7.47;;
34236;SDS011;20501;45.956;13.632;2023-08-20T12:07:55;13.07;;;8.73;;
34236;SDS011;20501;45.956;13.632;2023-08-20T12:10:22;14.07;;;9.13;;
34236;SDS011;20501;45.956;13.632;2023-08-20T12:12:49;9.15;;;8.25;;
34236;SDS011;20501;45.956;13.632;2023-08-20T12:15:15;10.57;;;8.70;;
34236;SDS011;20501;45.956;13.632;2023-08-20T12:17:40;9.53;;;8.53;;
34236;SDS011;20501;45.956;13.632;2023-08-20T12:20:06;8.83;;;7.20;;
34236;SDS011;20501;45.956;13.632;2023-08-20T12:22:38;10.32;;;8.52;;
34236;SDS011;20501;45.956;13.632;2023-08-20T12:27:30;10.52;;;8.93;;
34236;SDS011;20501;45.956;13.632;2023-08-20T12:29:55;8.50;;;7.70;;
34236;SDS011;20501;45.956;13.632;2023-08-20T12:32:21;8.90;;;7.90;;
34236;SDS011;20501;45.956;13.632;2023-08-20T12:34:46;10.97;;;7.80;;
34236;SDS011;20501;45.956;13.632;2023-08-20T12:37:11;11.13;;;8.63;;
34236;SDS011;20501;45.956;13.632;2023-08-20T12:39:37;10.40;;;7.93;;
34236;SDS011;20501;45.956;13.632;2023-08-20T12:42:02;12.30;;;8.57;;
34236;SDS011;20501;45.956;13.632;2023-08-20T12:44:28;12.13;;;9.40;;
34236;SDS011;20501;45.956;13.632;2023-08-20T12:46:53;11.83;;;9.90;;
34236;SDS011;20501;45.956;13.632;2023-08-20T12:49:18;10.33;;;9.33;;
34236;SDS011;20501;45.956;13.632;2023-08-20T12:51:44;12.83;;;9.17;;
34236;SDS011;20501;45.956;13.632;2023-08-20T12:54:09;13.07;;;9.27;;
34236;SDS011;20501;45.956;13.632;2023-08-20T12:56:35;14.90;;;8.97;;
34236;SDS011;20501;45.956;13.632;2023-08-20T12:59:00;10.20;;;9.07;;
34236;SDS011;20501;45.956;13.632;2023-08-20T13:01:26;13.03;;;9.13;;
34236;SDS011;20501;45.956;13.632;2023-08-20T13:03:51;9.53;;;8.23;;
34236;SDS011;20501;45.956;13.632;2023-08-20T13:06:17;9.93;;;8.90;;
34236;SDS011;20501;45.956;13.632;2023-08-20T13:08:43;9.80;;;8.80;;
34236;SDS011;20501;45.956;13.632;2023-08-20T13:11:09;10.77;;;9.10;;
34236;SDS011;20501;45.956;13.632;2023-08-20T13:13:38;14.63;;;9.35;;
34236;SDS011;20501;45.956;13.632;2023-08-20T13:16:04;12.17;;;9.47;;
34236;SDS011;20501;45.956;13.632;2023-08-20T13:18:30;11.17;;;10.07;;
34236;SDS011;20501;45.956;13.632;2023-08-20T13:20:55;14.93;;;9.70;;
34236;SDS011;20501;45.956;13.632;2023-08-20T13:23:21;14.63;;;10.10;;
34236;SDS011;20501;45.956;13.632;2023-08-20T13:25:47;11.57;;;10.37;;
34236;SDS011;20501;45.956;13.632;2023-08-20T13:28:12;11.33;;;9.77;;
34236;SDS011;20501;45.956;13.632;2023-08-20T13:30:38;12.73;;;9.57;;
34236;SDS011;20501;45.956;13.632;2023-08-20T13:33:04;14.55;;;9.90;;
34236;SDS011;20501;45.956;13.632;2023-08-20T13:35:29;12.23;;;10.13;;
34236;SDS011;20501;45.956;13.632;2023-08-20T13:37:55;11.20;;;10.00;;
34236;SDS011;20501;45.956;13.632;2023-08-20T13:40:21;15.03;;;10.27;;
34236;SDS011;20501;45.956;13.632;2023-08-20T13:42:46;10.53;;;9.37;;
34236;SDS011;20501;45.956;13.632;2023-08-20T13:45:11;14.53;;;10.83;;
34236;SDS011;20501;45.956;13.632;2023-08-20T13:47:37;10.57;;;9.47;;
34236;SDS011;20501;45.956;13.632;2023-08-20T13:50:02;13.77;;;10.70;;
34236;SDS011;20501;45.956;13.632;2023-08-20T13:52:29;13.30;;;10.30;;
34236;SDS011;20501;45.956;13.632;2023-08-20T13:54:55;16.07;;;10.80;;
34236;SDS011;20501;45.956;13.632;2023-08-20T13:57:20;19.07;;;11.37;;
34236;SDS011;20501;45.956;13.632;2023-08-20T13:59:45;13.97;;;9.97;;
34236;SDS011;20501;45.956;13.632;2023-08-20T14:02:11;15.00;;;10.97;;
34236;SDS011;20501;45.956;13.632;2023-08-20T14:04:37;13.70;;;11.00;;
34236;SDS011;20501;45.956;13.632;2023-08-20T14:07:02;13.07;;;10.90;;
34236;SDS011;20501;45.956;13.632;2023-08-20T14:09:28;11.23;;;10.10;;
34236;SDS011;20501;45.956;13.632;2023-08-20T14:11:53;15.10;;;10.77;;
34236;SDS011;20501;45.956;13.632;2023-08-20T14:14:19;12.10;;;10.80;;
34236;SDS011;20501;45.956;13.632;2023-08-20T14:16:44;11.67;;;10.53;;
34236;SDS011;20501;45.956;13.632;2023-08-20T14:19:09;14.67;;;10.00;;
34236;SDS011;20501;45.956;13.632;2023-08-20T14:21:35;11.57;;;10.37;;
34236;SDS011;20501;45.956;13.632;2023-08-20T14:24:01;13.18;;;10.43;;
34236;SDS011;20501;45.956;13.632;2023-08-20T14:26:26;13.50;;;10.23;;
34236;SDS011;20501;45.956;13.632;2023-08-20T14:28:52;14.83;;;11.37;;
34236;SDS011;20501;45.956;13.632;2023-08-20T14:31:17;12.33;;;10.27;;
34236;SDS011;20501;45.956;13.632;2023-08-20T14:36:09;14.35;;;10.05;;
34236;SDS011;20501;45.956;13.632;2023-08-20T14:38:34;12.73;;;11.30;;
34236;SDS011;20501;45.956;13.632;2023-08-20T14:41:00;13.57;;;11.63;;
34236;SDS011;20501;45.956;13.632;2023-08-20T14:43:26;11.52;;;10.32;;
34236;SDS011;20501;45.956;13.632;2023-08-20T14:45:52;15.85;;;11.50;;